sensor_id;sensor_type;location;lat;lon;timestamp;P1;durP1;ratioP1;P2;durP2;ratioP2
47021;SDS011;32779;52.264;6.154;2023-04-06T00:00:56;14.10;;;8.27;;
47021;SDS011;32779;52.264;6.154;2023-04-06T00:03:22;16.17;;;7.93;;
47021;SDS011;32779;52.264;6.154;2023-04-06T00:05:47;13.40;;;8.60;;
47021;SDS011;32779;52.264;6.154;2023-04-06T00:08:13;17.27;;;8.13;;
47021;SDS011;32779;52.264;6.154;2023-04-06T00:10:39;15.73;;;8.30;;
47021;SDS011;32779;52.264;6.154;2023-04-06T00:13:05;14.93;;;8.38;;
47021;SDS011;32779;52.264;6.154;2023-04-06T00:15:31;17.00;;;8.68;;
47021;SDS011;32779;52.264;6.154;2023-04-06T00:17:57;14.52;;;8.20;;
47021;SDS011;32779;52.264;6.154;2023-04-06T00:20:23;13.18;;;7.63;;
47021;SDS011;32779;52.264;6.154;2023-04-06T00:22:49;11.90;;;7.40;;
47021;SDS011;32779;52.264;6.154;2023-04-06T00:25:15;12.90;;;7.95;;
47021;SDS011;32779;52.264;6.154;2023-04-06T00:27:41;14.57;;;8.27;;
47021;SDS011;32779;52.264;6.154;2023-04-06T00:30:07;15.30;;;8.55;;
47021;SDS011;32779;52.264;6.154;2023-04-06T00:32:36;15.90;;;7.80;;
47021;SDS011;32779;52.264;6.154;2023-04-06T00:35:02;13.80;;;8.00;;
47021;SDS011;32779;52.264;6.154;2023-04-06T00:39:53;12.00;;;7.70;;
47021;SDS011;32779;52.264;6.154;2023-04-06T00:42:19;14.68;;;7.95;;
47021;SDS011;32779;52.264;6.154;2023-04-06T00:44:51;13.98;;;8.40;;
47021;SDS011;32779;52.264;6.154;2023-04-06T00:47:21;13.00;;;8.30;;
47021;SDS011;32779;52.264;6.154;2023-04-06T00:49:48;14.52;;;8.07;;
47021;SDS011;32779;52.264;6.154;2023-04-06T00:52:13;13.52;;;8.55;;
47021;SDS011;32779;52.264;6.154;2023-04-06T00:54:39;16.48;;;8.48;;
47021;SDS011;32779;52.264;6.154;2023-04-06T00:57:05;16.88;;;8.00;;
47021;SDS011;32779;52.264;6.154;2023-04-06T00:59:31;16.00;;;8.93;;
47021;SDS011;32779;52.264;6.154;2023-04-06T01:01:57;17.67;;;9.27;;
47021;SDS011;32779;52.264;6.154;2023-04-06T01:04:22;15.20;;;9.05;;
47021;SDS011;32779;52.264;6.154;2023-04-06T01:06:49;11.18;;;7.97;;
47021;SDS011;32779;52.264;6.154;2023-04-06T01:11:40;14.68;;;8.15;;
47021;SDS011;32779;52.264;6.154;2023-04-06T01:14:06;16.23;;;8.77;;
47021;SDS011;32779;52.264;6.154;2023-04-06T01:16:32;14.80;;;8.85;;
47021;SDS011;32779;52.264;6.154;2023-04-06T01:18:58;17.58;;;8.60;;
47021;SDS011;32779;52.264;6.154;2023-04-06T01:21:23;14.00;;;8.40;;
47021;SDS011;32779;52.264;6.154;2023-04-06T01:23:50;13.68;;;8.43;;
47021;SDS011;32779;52.264;6.154;2023-04-06T01:26:16;14.80;;;9.15;;
47021;SDS011;32779;52.264;6.154;2023-04-06T01:28:41;15.43;;;9.43;;
47021;SDS011;32779;52.264;6.154;2023-04-06T01:31:07;16.50;;;9.35;;
47021;SDS011;32779;52.264;6.154;2023-04-06T01:33:33;16.35;;;9.65;;
47021;SDS011;32779;52.264;6.154;2023-04-06T01:35:59;15.52;;;9.35;;
47021;SDS011;32779;52.264;6.154;2023-04-06T01:38:25;22.58;;;10.75;;
47021;SDS011;32779;52.264;6.154;2023-04-06T01:40:51;17.35;;;9.15;;
47021;SDS011;32779;52.264;6.154;2023-04-06T01:45:43;19.02;;;9.98;;
47021;SDS011;32779;52.264;6.154;2023-04-06T01:48:08;19.37;;;10.13;;
47021;SDS011;32779;52.264;6.154;2023-04-06T01:50:34;17.83;;;10.88;;
47021;SDS011;32779;52.264;6.154;2023-04-06T01:53:00;21.42;;;10.63;;
47021;SDS011;32779;52.264;6.154;2023-04-06T01:55:25;17.60;;;10.13;;
47021;SDS011;32779;52.264;6.154;2023-04-06T01:57:51;16.77;;;10.40;;
47021;SDS011;32779;52.264;6.154;2023-04-06T02:00:17;19.35;;;10.88;;
47021;SDS011;32779;52.264;6.154;2023-04-06T02:02:42;17.58;;;10.73;;
47021;SDS011;32779;52.264;6.154;2023-04-06T02:05:08;16.10;;;10.15;;
47021;SDS011;32779;52.264;6.154;2023-04-06T02:07:34;15.90;;;10.43;;
47021;SDS011;32779;52.264;6.154;2023-04-06T02:09:59;18.27;;;11.07;;
47021;SDS011;32779;52.264;6.154;2023-04-06T02:12:25;16.50;;;10.13;;
47021;SDS011;32779;52.264;6.154;2023-04-06T02:14:50;17.52;;;9.85;;
47021;SDS011;32779;52.264;6.154;2023-04-06T02:17:16;16.88;;;10.15;;
47021;SDS011;32779;52.264;6.154;2023-04-06T02:19:42;17.83;;;10.20;;
47021;SDS011;32779;52.264;6.154;2023-04-06T02:22:08;17.57;;;9.77;;
47021;SDS011;32779;52.264;6.154;2023-04-06T02:24:34;20.90;;;10.68;;
47021;SDS011;32779;52.264;6.154;2023-04-06T02:27:00;20.33;;;10.45;;
47021;SDS011;32779;52.264;6.154;2023-04-06T02:29:26;16.10;;;9.90;;
47021;SDS011;32779;52.264;6.154;2023-04-06T02:31:51;17.00;;;10.60;;
47021;SDS011;32779;52.264;6.154;2023-04-06T02:34:17;19.40;;;9.93;;
47021;SDS011;32779;52.264;6.154;2023-04-06T02:36:43;17.67;;;11.05;;
47021;SDS011;32779;52.264;6.154;2023-04-06T02:39:10;15.30;;;10.27;;
47021;SDS011;32779;52.264;6.154;2023-04-06T02:41:36;16.02;;;10.95;;
47021;SDS011;32779;52.264;6.154;2023-04-06T02:44:02;17.55;;;11.27;;
47021;SDS011;32779;52.264;6.154;2023-04-06T02:46:28;15.60;;;10.52;;
47021;SDS011;32779;52.264;6.154;2023-04-06T02:48:54;16.95;;;10.70;;
47021;SDS011;32779;52.264;6.154;2023-04-06T02:51:20;17.52;;;10.98;;
47021;SDS011;32779;52.264;6.154;2023-04-06T02:53:45;17.63;;;10.75;;
47021;SDS011;32779;52.264;6.154;2023-04-06T02:56:11;17.55;;;10.65;;
47021;SDS011;32779;52.264;6.154;2023-04-06T02:58:37;15.63;;;10.07;;
47021;SDS011;32779;52.264;6.154;2023-04-06T03:01:03;19.30;;;11.48;;
47021;SDS011;32779;52.264;6.154;2023-04-06T03:03:28;18.25;;;10.80;;
47021;SDS011;32779;52.264;6.154;2023-04-06T03:05:55;18.88;;;10.43;;
47021;SDS011;32779;52.264;6.154;2023-04-06T03:08:23;18.38;;;10.23;;
47021;SDS011;32779;52.264;6.154;2023-04-06T03:10:49;20.83;;;10.18;;
47021;SDS011;32779;52.264;6.154;2023-04-06T03:13:15;14.95;;;9.63;;
47021;SDS011;32779;52.264;6.154;2023-04-06T03:15:41;17.52;;;9.60;;
47021;SDS011;32779;52.264;6.154;2023-04-06T03:18:06;21.65;;;11.10;;
47021;SDS011;32779;52.264;6.154;2023-04-06T03:20:32;18.90;;;10.40;;
47021;SDS011;32779;52.264;6.154;2023-04-06T03:22:57;15.63;;;10.03;;
47021;SDS011;32779;52.264;6.154;2023-04-06T03:25:23;17.55;;;10.90;;
47021;SDS011;32779;52.264;6.154;2023-04-06T03:27:49;19.17;;;10.85;;
47021;SDS011;32779;52.264;6.154;2023-04-06T03:30:15;18.27;;;11.20;;
47021;SDS011;32779;52.264;6.154;2023-04-06T03:32:43;17.33;;;10.77;;
47021;SDS011;32779;52.264;6.154;2023-04-06T03:35:09;20.23;;;11.50;;
47021;SDS011;32779;52.264;6.154;2023-04-06T03:37:35;19.75;;;12.35;;
47021;SDS011;32779;52.264;6.154;2023-04-06T03:40:01;18.40;;;11.23;;
47021;SDS011;32779;52.264;6.154;2023-04-06T03:42:27;22.33;;;12.05;;
47021;SDS011;32779;52.264;6.154;2023-04-06T03:44:53;22.17;;;11.77;;
47021;SDS011;32779;52.264;6.154;2023-04-06T03:47:18;16.80;;;10.60;;
47021;SDS011;32779;52.264;6.154;2023-04-06T03:49:44;17.60;;;12.02;;
47021;SDS011;32779;52.264;6.154;2023-04-06T03:52:10;18.13;;;11.82;;
47021;SDS011;32779;52.264;6.154;2023-04-06T03:54:36;18.85;;;11.05;;
47021;SDS011;32779;52.264;6.154;2023-04-06T03:57:01;19.95;;;12.02;;
47021;SDS011;32779;52.264;6.154;2023-04-06T03:59:27;20.02;;;11.70;;
47021;SDS011;32779;52.264;6.154;2023-04-06T04:01:53;17.35;;;11.13;;
47021;SDS011;32779;52.264;6.154;2023-04-06T04:04:18;23.60;;;11.57;;
47021;SDS011;32779;52.264;6.154;2023-04-06T04:06:44;21.00;;;11.95;;
47021;SDS011;32779;52.264;6.154;2023-04-06T04:09:09;16.42;;;11.00;;
47021;SDS011;32779;52.264;6.154;2023-04-06T04:11:35;16.92;;;11.02;;
47021;SDS011;32779;52.264;6.154;2023-04-06T04:14:01;18.00;;;10.93;;
47021;SDS011;32779;52.264;6.154;2023-04-06T04:16:26;21.88;;;11.07;;
47021;SDS011;32779;52.264;6.154;2023-04-06T04:18:52;19.27;;;11.43;;
47021;SDS011;32779;52.264;6.154;2023-04-06T04:21:17;19.70;;;11.23;;
47021;SDS011;32779;52.264;6.154;2023-04-06T04:23:43;20.58;;;11.68;;
47021;SDS011;32779;52.264;6.154;2023-04-06T04:26:08;17.13;;;11.07;;
47021;SDS011;32779;52.264;6.154;2023-04-06T04:28:35;21.38;;;11.07;;
47021;SDS011;32779;52.264;6.154;2023-04-06T04:31:00;17.17;;;11.03;;
47021;SDS011;32779;52.264;6.154;2023-04-06T04:33:26;16.02;;;11.30;;
47021;SDS011;32779;52.264;6.154;2023-04-06T04:35:51;20.60;;;11.25;;
47021;SDS011;32779;52.264;6.154;2023-04-06T04:38:17;17.92;;;11.05;;
47021;SDS011;32779;52.264;6.154;2023-04-06T04:40:43;22.20;;;11.27;;
47021;SDS011;32779;52.264;6.154;2023-04-06T04:43:08;19.58;;;11.48;;
47021;SDS011;32779;52.264;6.154;2023-04-06T04:45:34;17.23;;;10.70;;
47021;SDS011;32779;52.264;6.154;2023-04-06T04:48:00;18.40;;;10.95;;
47021;SDS011;32779;52.264;6.154;2023-04-06T04:50:25;21.57;;;11.83;;
47021;SDS011;32779;52.264;6.154;2023-04-06T04:52:51;18.77;;;11.00;;
47021;SDS011;32779;52.264;6.154;2023-04-06T04:55:16;20.55;;;11.68;;
47021;SDS011;32779;52.264;6.154;2023-04-06T04:57:42;25.98;;;12.20;;
47021;SDS011;32779;52.264;6.154;2023-04-06T05:00:08;16.65;;;11.10;;
47021;SDS011;32779;52.264;6.154;2023-04-06T05:02:35;23.38;;;12.73;;
47021;SDS011;32779;52.264;6.154;2023-04-06T05:05:00;20.27;;;12.50;;
47021;SDS011;32779;52.264;6.154;2023-04-06T05:07:26;18.20;;;12.53;;
47021;SDS011;32779;52.264;6.154;2023-04-06T05:09:51;23.27;;;13.40;;
47021;SDS011;32779;52.264;6.154;2023-04-06T05:12:18;25.98;;;13.15;;
47021;SDS011;32779;52.264;6.154;2023-04-06T05:14:44;21.17;;;12.95;;
47021;SDS011;32779;52.264;6.154;2023-04-06T05:17:10;23.73;;;12.50;;
47021;SDS011;32779;52.264;6.154;2023-04-06T05:19:36;19.75;;;12.65;;
47021;SDS011;32779;52.264;6.154;2023-04-06T05:22:01;19.45;;;12.77;;
47021;SDS011;32779;52.264;6.154;2023-04-06T05:24:27;23.38;;;11.90;;
47021;SDS011;32779;52.264;6.154;2023-04-06T05:26:53;25.63;;;12.43;;
47021;SDS011;32779;52.264;6.154;2023-04-06T05:31:45;22.85;;;12.65;;
47021;SDS011;32779;52.264;6.154;2023-04-06T05:34:11;22.85;;;12.77;;
47021;SDS011;32779;52.264;6.154;2023-04-06T05:39:03;24.95;;;12.93;;
47021;SDS011;32779;52.264;6.154;2023-04-06T05:41:28;23.92;;;12.88;;
47021;SDS011;32779;52.264;6.154;2023-04-06T05:43:54;29.17;;;12.65;;
47021;SDS011;32779;52.264;6.154;2023-04-06T05:46:20;22.65;;;12.63;;
47021;SDS011;32779;52.264;6.154;2023-04-06T05:48:46;24.50;;;13.27;;
47021;SDS011;32779;52.264;6.154;2023-04-06T05:51:11;29.05;;;13.82;;
47021;SDS011;32779;52.264;6.154;2023-04-06T05:53:37;20.35;;;12.57;;
47021;SDS011;32779;52.264;6.154;2023-04-06T05:56:03;22.42;;;12.65;;
47021;SDS011;32779;52.264;6.154;2023-04-06T06:00:58;23.50;;;12.10;;
47021;SDS011;32779;52.264;6.154;2023-04-06T06:03:24;19.98;;;11.40;;
47021;SDS011;32779;52.264;6.154;2023-04-06T06:05:50;19.70;;;12.20;;
47021;SDS011;32779;52.264;6.154;2023-04-06T06:08:16;21.15;;;12.52;;
47021;SDS011;32779;52.264;6.154;2023-04-06T06:10:41;20.27;;;10.80;;
47021;SDS011;32779;52.264;6.154;2023-04-06T06:15:33;19.95;;;11.98;;
47021;SDS011;32779;52.264;6.154;2023-04-06T06:17:59;20.40;;;10.80;;
47021;SDS011;32779;52.264;6.154;2023-04-06T06:22:51;22.35;;;11.23;;
47021;SDS011;32779;52.264;6.154;2023-04-06T06:25:17;16.27;;;10.20;;
47021;SDS011;32779;52.264;6.154;2023-04-06T06:27:42;17.02;;;11.30;;
47021;SDS011;32779;52.264;6.154;2023-04-06T06:30:08;18.25;;;10.95;;
47021;SDS011;32779;52.264;6.154;2023-04-06T06:32:34;18.15;;;10.05;;
47021;SDS011;32779;52.264;6.154;2023-04-06T06:34:59;17.77;;;10.43;;
47021;SDS011;32779;52.264;6.154;2023-04-06T06:37:25;25.92;;;10.68;;
47021;SDS011;32779;52.264;6.154;2023-04-06T06:39:51;19.85;;;11.52;;
47021;SDS011;32779;52.264;6.154;2023-04-06T06:42:16;16.85;;;10.73;;
47021;SDS011;32779;52.264;6.154;2023-04-06T06:44:42;20.60;;;11.43;;
47021;SDS011;32779;52.264;6.154;2023-04-06T06:47:07;18.20;;;10.52;;
47021;SDS011;32779;52.264;6.154;2023-04-06T06:49:33;27.63;;;10.55;;
47021;SDS011;32779;52.264;6.154;2023-04-06T06:51:59;17.42;;;10.60;;
47021;SDS011;32779;52.264;6.154;2023-04-06T06:54:24;18.70;;;10.35;;
47021;SDS011;32779;52.264;6.154;2023-04-06T06:56:50;17.08;;;9.75;;
47021;SDS011;32779;52.264;6.154;2023-04-06T06:59:15;15.05;;;9.15;;
47021;SDS011;32779;52.264;6.154;2023-04-06T07:01:41;18.52;;;10.25;;
47021;SDS011;32779;52.264;6.154;2023-04-06T07:04:07;16.52;;;9.90;;
47021;SDS011;32779;52.264;6.154;2023-04-06T07:09:00;16.95;;;10.35;;
47021;SDS011;32779;52.264;6.154;2023-04-06T07:11:28;14.98;;;9.98;;
47021;SDS011;32779;52.264;6.154;2023-04-06T07:13:53;25.42;;;10.60;;
47021;SDS011;32779;52.264;6.154;2023-04-06T07:16:19;17.65;;;10.57;;
47021;SDS011;32779;52.264;6.154;2023-04-06T07:18:45;21.40;;;10.75;;
47021;SDS011;32779;52.264;6.154;2023-04-06T07:21:11;17.17;;;10.25;;
47021;SDS011;32779;52.264;6.154;2023-04-06T07:23:37;20.92;;;11.15;;
47021;SDS011;32779;52.264;6.154;2023-04-06T07:26:02;17.27;;;9.55;;
47021;SDS011;32779;52.264;6.154;2023-04-06T07:28:28;15.02;;;10.25;;
47021;SDS011;32779;52.264;6.154;2023-04-06T07:30:53;17.15;;;10.23;;
47021;SDS011;32779;52.264;6.154;2023-04-06T07:33:19;21.98;;;11.32;;
47021;SDS011;32779;52.264;6.154;2023-04-06T07:35:45;22.00;;;11.25;;
47021;SDS011;32779;52.264;6.154;2023-04-06T07:38:11;17.85;;;9.55;;
47021;SDS011;32779;52.264;6.154;2023-04-06T07:40:37;19.15;;;10.65;;
47021;SDS011;32779;52.264;6.154;2023-04-06T07:43:02;16.70;;;10.20;;
47021;SDS011;32779;52.264;6.154;2023-04-06T07:45:28;25.02;;;11.27;;
47021;SDS011;32779;52.264;6.154;2023-04-06T07:47:54;23.15;;;11.77;;
47021;SDS011;32779;52.264;6.154;2023-04-06T07:50:19;23.10;;;10.80;;
47021;SDS011;32779;52.264;6.154;2023-04-06T07:52:45;21.10;;;11.20;;
47021;SDS011;32779;52.264;6.154;2023-04-06T07:55:11;18.30;;;10.73;;
47021;SDS011;32779;52.264;6.154;2023-04-06T07:57:36;22.23;;;11.07;;
47021;SDS011;32779;52.264;6.154;2023-04-06T08:00:02;15.25;;;10.55;;
47021;SDS011;32779;52.264;6.154;2023-04-06T08:02:29;21.30;;;11.98;;
47021;SDS011;32779;52.264;6.154;2023-04-06T08:04:56;23.00;;;10.80;;
47021;SDS011;32779;52.264;6.154;2023-04-06T08:07:21;20.95;;;12.15;;
47021;SDS011;32779;52.264;6.154;2023-04-06T08:09:47;18.00;;;10.85;;
47021;SDS011;32779;52.264;6.154;2023-04-06T08:12:12;19.25;;;11.18;;
47021;SDS011;32779;52.264;6.154;2023-04-06T08:14:39;19.35;;;11.38;;
47021;SDS011;32779;52.264;6.154;2023-04-06T08:17:06;18.83;;;11.02;;
47021;SDS011;32779;52.264;6.154;2023-04-06T08:19:32;20.45;;;11.30;;
47021;SDS011;32779;52.264;6.154;2023-04-06T08:21:57;21.92;;;11.30;;
47021;SDS011;32779;52.264;6.154;2023-04-06T08:24:23;21.80;;;11.75;;
47021;SDS011;32779;52.264;6.154;2023-04-06T08:26:48;17.58;;;11.25;;
47021;SDS011;32779;52.264;6.154;2023-04-06T08:29:15;17.73;;;11.88;;
47021;SDS011;32779;52.264;6.154;2023-04-06T08:31:41;22.52;;;11.82;;
47021;SDS011;32779;52.264;6.154;2023-04-06T08:34:06;20.83;;;12.48;;
47021;SDS011;32779;52.264;6.154;2023-04-06T08:36:32;20.42;;;12.68;;
47021;SDS011;32779;52.264;6.154;2023-04-06T08:38:58;22.95;;;12.48;;
47021;SDS011;32779;52.264;6.154;2023-04-06T08:41:25;20.20;;;13.30;;
47021;SDS011;32779;52.264;6.154;2023-04-06T08:43:55;20.05;;;12.52;;
47021;SDS011;32779;52.264;6.154;2023-04-06T08:46:23;21.65;;;12.65;;
47021;SDS011;32779;52.264;6.154;2023-04-06T08:49:00;18.00;;;11.88;;
47021;SDS011;32779;52.264;6.154;2023-04-06T08:51:27;22.67;;;12.90;;
47021;SDS011;32779;52.264;6.154;2023-04-06T08:53:54;24.90;;;13.73;;
47021;SDS011;32779;52.264;6.154;2023-04-06T08:56:21;22.08;;;12.90;;
47021;SDS011;32779;52.264;6.154;2023-04-06T08:58:47;21.30;;;12.95;;
47021;SDS011;32779;52.264;6.154;2023-04-06T09:01:14;22.50;;;13.55;;
47021;SDS011;32779;52.264;6.154;2023-04-06T09:03:42;20.98;;;12.95;;
47021;SDS011;32779;52.264;6.154;2023-04-06T09:06:08;22.85;;;13.25;;
47021;SDS011;32779;52.264;6.154;2023-04-06T09:08:35;20.88;;;12.63;;
47021;SDS011;32779;52.264;6.154;2023-04-06T09:11:03;21.98;;;13.13;;
47021;SDS011;32779;52.264;6.154;2023-04-06T09:15:58;26.10;;;13.30;;
47021;SDS011;32779;52.264;6.154;2023-04-06T09:18:29;18.13;;;12.65;;
47021;SDS011;32779;52.264;6.154;2023-04-06T09:23:27;21.13;;;13.55;;
47021;SDS011;32779;52.264;6.154;2023-04-06T09:26:12;22.30;;;13.52;;
47021;SDS011;32779;52.264;6.154;2023-04-06T09:28:43;23.00;;;13.20;;
47021;SDS011;32779;52.264;6.154;2023-04-06T09:31:16;22.88;;;13.88;;
47021;SDS011;32779;52.264;6.154;2023-04-06T09:33:47;20.10;;;13.35;;
47021;SDS011;32779;52.264;6.154;2023-04-06T09:36:13;21.50;;;14.30;;
47021;SDS011;32779;52.264;6.154;2023-04-06T09:38:56;21.65;;;13.35;;
47021;SDS011;32779;52.264;6.154;2023-04-06T09:41:28;20.65;;;13.82;;
47021;SDS011;32779;52.264;6.154;2023-04-06T09:44:10;26.80;;;13.90;;
47021;SDS011;32779;52.264;6.154;2023-04-06T09:46:38;23.70;;;14.20;;
47021;SDS011;32779;52.264;6.154;2023-04-06T09:49:06;27.73;;;14.88;;
47021;SDS011;32779;52.264;6.154;2023-04-06T09:54:35;23.98;;;14.38;;
47021;SDS011;32779;52.264;6.154;2023-04-06T09:57:11;24.27;;;14.32;;
47021;SDS011;32779;52.264;6.154;2023-04-06T10:08:11;26.15;;;14.10;;
47021;SDS011;32779;52.264;6.154;2023-04-06T10:10:38;23.05;;;13.68;;
47021;SDS011;32779;52.264;6.154;2023-04-06T10:13:04;25.92;;;14.85;;
47021;SDS011;32779;52.264;6.154;2023-04-06T10:15:35;23.63;;;13.30;;
47021;SDS011;32779;52.264;6.154;2023-04-06T10:18:03;22.85;;;14.10;;
47021;SDS011;32779;52.264;6.154;2023-04-06T10:23:21;25.92;;;14.27;;
47021;SDS011;32779;52.264;6.154;2023-04-06T10:26:12;26.08;;;14.20;;
47021;SDS011;32779;52.264;6.154;2023-04-06T10:28:42;24.80;;;13.57;;
47021;SDS011;32779;52.264;6.154;2023-04-06T10:31:09;25.65;;;14.38;;
47021;SDS011;32779;52.264;6.154;2023-04-06T10:33:35;23.77;;;14.70;;
47021;SDS011;32779;52.264;6.154;2023-04-06T10:36:11;34.45;;;14.88;;
47021;SDS011;32779;52.264;6.154;2023-04-06T10:38:40;27.90;;;15.15;;
47021;SDS011;32779;52.264;6.154;2023-04-06T10:43:34;27.42;;;14.82;;
47021;SDS011;32779;52.264;6.154;2023-04-06T10:46:01;27.58;;;15.45;;
47021;SDS011;32779;52.264;6.154;2023-04-06T10:48:37;28.52;;;15.88;;
47021;SDS011;32779;52.264;6.154;2023-04-06T10:51:12;27.42;;;14.93;;
47021;SDS011;32779;52.264;6.154;2023-04-06T10:53:41;22.95;;;14.55;;
47021;SDS011;32779;52.264;6.154;2023-04-06T10:56:11;25.63;;;14.25;;
47021;SDS011;32779;52.264;6.154;2023-04-06T10:58:46;23.67;;;14.45;;
47021;SDS011;32779;52.264;6.154;2023-04-06T11:01:12;28.35;;;16.20;;
47021;SDS011;32779;52.264;6.154;2023-04-06T11:03:47;27.70;;;14.73;;
47021;SDS011;32779;52.264;6.154;2023-04-06T11:06:17;26.13;;;15.48;;
47021;SDS011;32779;52.264;6.154;2023-04-06T11:08:51;24.40;;;15.35;;
47021;SDS011;32779;52.264;6.154;2023-04-06T11:13:57;26.95;;;15.15;;
47021;SDS011;32779;52.264;6.154;2023-04-06T11:16:24;26.73;;;14.63;;
47021;SDS011;32779;52.264;6.154;2023-04-06T11:18:55;21.50;;;14.75;;
47021;SDS011;32779;52.264;6.154;2023-04-06T11:21:34;22.02;;;15.00;;
47021;SDS011;32779;52.264;6.154;2023-04-06T11:24:04;25.92;;;14.85;;
47021;SDS011;32779;52.264;6.154;2023-04-06T11:26:36;26.15;;;15.15;;
47021;SDS011;32779;52.264;6.154;2023-04-06T11:29:06;27.52;;;15.85;;
47021;SDS011;32779;52.264;6.154;2023-04-06T11:31:45;27.67;;;14.65;;
47021;SDS011;32779;52.264;6.154;2023-04-06T11:34:13;26.00;;;15.65;;
47021;SDS011;32779;52.264;6.154;2023-04-06T11:36:42;25.23;;;14.25;;
47021;SDS011;32779;52.264;6.154;2023-04-06T11:39:09;25.77;;;15.32;;
47021;SDS011;32779;52.264;6.154;2023-04-06T11:41:35;21.92;;;13.93;;
47021;SDS011;32779;52.264;6.154;2023-04-06T11:44:01;22.98;;;15.25;;
47021;SDS011;32779;52.264;6.154;2023-04-06T11:46:28;24.05;;;14.70;;
47021;SDS011;32779;52.264;6.154;2023-04-06T11:48:57;27.52;;;15.60;;
47021;SDS011;32779;52.264;6.154;2023-04-06T11:51:24;21.88;;;13.02;;
47021;SDS011;32779;52.264;6.154;2023-04-06T11:53:51;29.77;;;14.13;;
47021;SDS011;32779;52.264;6.154;2023-04-06T11:56:29;25.35;;;13.90;;
47021;SDS011;32779;52.264;6.154;2023-04-06T11:58:55;17.70;;;11.65;;
47021;SDS011;32779;52.264;6.154;2023-04-06T12:01:22;20.65;;;11.48;;
47021;SDS011;32779;52.264;6.154;2023-04-06T12:03:49;15.68;;;10.05;;
47021;SDS011;32779;52.264;6.154;2023-04-06T12:06:16;17.67;;;9.00;;
47021;SDS011;32779;52.264;6.154;2023-04-06T12:08:41;12.27;;;8.70;;
47021;SDS011;32779;52.264;6.154;2023-04-06T12:11:07;14.45;;;9.48;;
47021;SDS011;32779;52.264;6.154;2023-04-06T12:13:33;14.45;;;9.40;;
47021;SDS011;32779;52.264;6.154;2023-04-06T12:15:59;16.15;;;9.32;;
47021;SDS011;32779;52.264;6.154;2023-04-06T12:18:24;15.38;;;9.77;;
47021;SDS011;32779;52.264;6.154;2023-04-06T12:20:50;20.42;;;10.07;;
47021;SDS011;32779;52.264;6.154;2023-04-06T12:23:16;14.73;;;10.63;;
47021;SDS011;32779;52.264;6.154;2023-04-06T12:25:42;17.50;;;11.65;;
47021;SDS011;32779;52.264;6.154;2023-04-06T12:28:08;14.35;;;10.60;;
47021;SDS011;32779;52.264;6.154;2023-04-06T12:30:36;17.48;;;11.75;;
47021;SDS011;32779;52.264;6.154;2023-04-06T12:33:02;19.92;;;11.52;;
47021;SDS011;32779;52.264;6.154;2023-04-06T12:35:28;18.85;;;11.80;;
47021;SDS011;32779;52.264;6.154;2023-04-06T12:37:53;17.75;;;11.63;;
47021;SDS011;32779;52.264;6.154;2023-04-06T12:40:20;18.05;;;11.65;;
47021;SDS011;32779;52.264;6.154;2023-04-06T12:42:45;16.83;;;11.68;;
47021;SDS011;32779;52.264;6.154;2023-04-06T12:45:11;14.77;;;11.80;;
47021;SDS011;32779;52.264;6.154;2023-04-06T12:47:37;19.15;;;12.65;;
47021;SDS011;32779;52.264;6.154;2023-04-06T12:50:04;19.75;;;12.20;;
47021;SDS011;32779;52.264;6.154;2023-04-06T12:52:33;19.95;;;12.05;;
47021;SDS011;32779;52.264;6.154;2023-04-06T12:55:02;19.50;;;12.30;;
47021;SDS011;32779;52.264;6.154;2023-04-06T12:57:29;14.68;;;12.05;;
47021;SDS011;32779;52.264;6.154;2023-04-06T12:59:55;20.23;;;13.10;;
47021;SDS011;32779;52.264;6.154;2023-04-06T13:02:22;18.00;;;12.77;;
47021;SDS011;32779;52.264;6.154;2023-04-06T13:04:48;16.58;;;11.88;;
47021;SDS011;32779;52.264;6.154;2023-04-06T13:07:15;20.42;;;13.05;;
47021;SDS011;32779;52.264;6.154;2023-04-06T13:09:41;18.90;;;12.70;;
47021;SDS011;32779;52.264;6.154;2023-04-06T13:12:06;20.40;;;13.13;;
47021;SDS011;32779;52.264;6.154;2023-04-06T13:14:32;16.85;;;11.50;;
47021;SDS011;32779;52.264;6.154;2023-04-06T13:16:57;17.00;;;12.00;;
47021;SDS011;32779;52.264;6.154;2023-04-06T13:19:24;21.08;;;11.90;;
47021;SDS011;32779;52.264;6.154;2023-04-06T13:21:50;16.92;;;11.20;;
47021;SDS011;32779;52.264;6.154;2023-04-06T13:24:16;16.35;;;10.68;;
47021;SDS011;32779;52.264;6.154;2023-04-06T13:26:41;15.05;;;11.23;;
47021;SDS011;32779;52.264;6.154;2023-04-06T13:29:07;15.90;;;11.07;;
47021;SDS011;32779;52.264;6.154;2023-04-06T13:31:32;18.63;;;11.10;;
47021;SDS011;32779;52.264;6.154;2023-04-06T13:33:58;17.88;;;10.70;;
47021;SDS011;32779;52.264;6.154;2023-04-06T13:36:23;16.27;;;10.13;;
47021;SDS011;32779;52.264;6.154;2023-04-06T13:38:51;13.77;;;9.60;;
47021;SDS011;32779;52.264;6.154;2023-04-06T13:41:20;18.35;;;11.05;;
47021;SDS011;32779;52.264;6.154;2023-04-06T13:43:46;15.98;;;10.07;;
47021;SDS011;32779;52.264;6.154;2023-04-06T13:46:12;13.05;;;9.00;;
47021;SDS011;32779;52.264;6.154;2023-04-06T13:48:38;12.90;;;8.38;;
47021;SDS011;32779;52.264;6.154;2023-04-06T13:51:10;10.23;;;7.55;;
47021;SDS011;32779;52.264;6.154;2023-04-06T13:53:37;12.35;;;8.10;;
47021;SDS011;32779;52.264;6.154;2023-04-06T13:56:03;14.90;;;8.13;;
47021;SDS011;32779;52.264;6.154;2023-04-06T13:58:29;14.05;;;8.88;;
47021;SDS011;32779;52.264;6.154;2023-04-06T14:00:55;14.68;;;8.30;;
47021;SDS011;32779;52.264;6.154;2023-04-06T14:03:35;12.85;;;8.18;;
47021;SDS011;32779;52.264;6.154;2023-04-06T14:08:34;14.30;;;8.13;;
47021;SDS011;32779;52.264;6.154;2023-04-06T14:11:00;12.95;;;7.20;;
47021;SDS011;32779;52.264;6.154;2023-04-06T14:13:25;11.38;;;7.03;;
47021;SDS011;32779;52.264;6.154;2023-04-06T14:15:54;8.93;;;6.68;;
47021;SDS011;32779;52.264;6.154;2023-04-06T14:18:20;9.27;;;6.45;;
47021;SDS011;32779;52.264;6.154;2023-04-06T14:20:53;11.85;;;7.65;;
47021;SDS011;32779;52.264;6.154;2023-04-06T14:23:20;12.65;;;7.57;;
47021;SDS011;32779;52.264;6.154;2023-04-06T14:25:45;8.35;;;6.45;;
47021;SDS011;32779;52.264;6.154;2023-04-06T14:28:11;9.73;;;7.10;;
47021;SDS011;32779;52.264;6.154;2023-04-06T14:30:37;11.52;;;7.43;;
47021;SDS011;32779;52.264;6.154;2023-04-06T14:33:03;11.13;;;6.90;;
47021;SDS011;32779;52.264;6.154;2023-04-06T14:35:28;10.85;;;7.07;;
47021;SDS011;32779;52.264;6.154;2023-04-06T14:37:57;11.30;;;7.43;;
47021;SDS011;32779;52.264;6.154;2023-04-06T14:40:23;11.23;;;7.68;;
47021;SDS011;32779;52.264;6.154;2023-04-06T14:42:49;12.70;;;8.32;;
47021;SDS011;32779;52.264;6.154;2023-04-06T14:45:16;10.73;;;7.40;;
47021;SDS011;32779;52.264;6.154;2023-04-06T14:47:44;14.40;;;8.55;;
47021;SDS011;32779;52.264;6.154;2023-04-06T14:50:10;12.18;;;8.05;;
47021;SDS011;32779;52.264;6.154;2023-04-06T14:52:36;12.52;;;8.40;;
47021;SDS011;32779;52.264;6.154;2023-04-06T14:55:02;12.18;;;8.57;;
47021;SDS011;32779;52.264;6.154;2023-04-06T14:57:29;14.88;;;9.40;;
47021;SDS011;32779;52.264;6.154;2023-04-06T14:59:55;12.60;;;8.25;;
47021;SDS011;32779;52.264;6.154;2023-04-06T15:02:21;13.00;;;8.23;;
47021;SDS011;32779;52.264;6.154;2023-04-06T15:04:47;12.02;;;7.57;;
47021;SDS011;32779;52.264;6.154;2023-04-06T15:07:12;12.85;;;8.77;;
47021;SDS011;32779;52.264;6.154;2023-04-06T15:09:38;11.50;;;8.00;;
47021;SDS011;32779;52.264;6.154;2023-04-06T15:12:03;12.20;;;8.02;;